Weather forecast for Butser Hill

United Kingdom, 240 m
N50.977, E-0.982


Sounding

Red line — air temperature ˚C.
Blue line — thermal bubble temperature ˚C.
Green line — dew point temperature ˚C.
Wind speed is in meters per second.

Table forecast

GFS 0.25˚ model

temp. wind gust humid. clouds prec. press. hpbl
Tue18 00:00 10 223.0 sw 1 2 91 54 0.0 1017 22
03:00 9 243.0 wsw 0 1 90 97 0.0 1015 22
06:00 12 98.0 e 1 1 83 98 0.0 1015 42
09:00 15 119.0 ese 1 1 76 100 0.3 1015 329
12:00 16 355.0 n 2 2 85 100 1.1 1014 455
15:00 15 4.0 n 3 4 88 100 0.1 1012 288
18:00 16 13.0 nne 4 5 91 100 0.4 1011 250
21:00 13 21.0 nne 4 8 95 97 0.0 1010 166
 
Wed19 00:00 13 24.0 nne 3 6 93 98 0.0 1009 179
03:00 13 14.0 nne 3 5 98 100 1.3 1007 144
06:00 14 350.0 n 3 5 95 100 2.3 1007 219
09:00 14 323.0 nw 4 6 92 95 0.0 1008 353
12:00 18 291.0 wnw 3 5 76 84 0.6 1010 882
15:00 17 268.0 w 4 6 85 81 1.8 1010 676
18:00 16 285.0 wnw 4 6 87 87 2.3 1010 599
21:00 12 271.0 w 3 5 94 100 0.0 1011 110
 
Thu20 00:00 9 286.0 wnw 3 6 91 93 0.0 1011 128
03:00 8 276.0 w 3 3 91 85 0.0 1011 80
06:00 10 280.0 w 4 8 93 55 0.0 1012 299
09:00 15 273.0 w 5 7 77 0 0.0 1013 819
12:00 17 275.0 w 6 7 70 5 0.2 1014 1298
15:00 16 264.0 w 7 8 78 20 0.6 1014 886
18:00 15 272.0 w 5 7 80 27 0.9 1015 806
21:00 10 279.0 w 3 6 93 14 0.0 1016 144
 
Fri21 00:00 8 273.0 w 2 3 93 7 0.0 1017 45
03:00 8 248.0 wsw 3 3 95 0 0.0 1017 78
06:00 10 254.0 wsw 4 6 90 0 0.0 1018 279
09:00 15 244.0 wsw 5 6 72 0 0.0 1019 978
12:00 17 241.0 wsw 5 6 72 0 0.4 1019 1119
15:00 16 253.0 wsw 5 7 76 52 1.1 1019 932
18:00 15 255.0 wsw 4 5 81 46 1.4 1020 636
21:00 11 277.0 w 2 2 91 25 0.0 1021 26
 
Sat22 00:00 9 293.0 wnw 1 1 89 34 0.0 1021 22
03:00 8 327.0 nnw 1 1 89 19 0.0 1021 22
06:00 11 350.0 n 1 1 83 10 0.0 1021 75
09:00 16 3.0 n 0 0 72 0 0.0 1021 786
12:00 18 180.0 s 3 2 67 16 0.4 1020 1122
15:00 18 194.0 ssw 3 2 68 31 0.6 1020 854
18:00 17 192.0 ssw 2 2 73 16 0.6 1019 425
21:00 11 181.0 s 1 1 88 21 0.0 1020 23
 

0.016 s